sensor_id;sensor_type;location;lat;lon;timestamp;P1;durP1;ratioP1;P2;durP2;ratioP2
84011;SDS011;74081;52.490;13.428;2024-03-25T00:02:14;3.40;;;3.20;;
84011;SDS011;74081;52.490;13.428;2024-03-25T00:04:40;3.07;;;2.70;;
84011;SDS011;74081;52.490;13.428;2024-03-25T00:07:05;2.80;;;2.60;;
84011;SDS011;74081;52.490;13.428;2024-03-25T00:09:31;3.70;;;3.50;;
84011;SDS011;74081;52.490;13.428;2024-03-25T00:11:57;3.13;;;2.93;;
84011;SDS011;74081;52.490;13.428;2024-03-25T00:14:23;3.37;;;2.90;;
84011;SDS011;74081;52.490;13.428;2024-03-25T00:16:49;2.90;;;2.70;;
84011;SDS011;74081;52.490;13.428;2024-03-25T00:19:15;3.73;;;3.53;;
84011;SDS011;74081;52.490;13.428;2024-03-25T00:21:41;4.00;;;3.00;;
84011;SDS011;74081;52.490;13.428;2024-03-25T00:24:07;3.30;;;3.10;;
84011;SDS011;74081;52.490;13.428;2024-03-25T00:26:33;6.10;;;4.00;;
84011;SDS011;74081;52.490;13.428;2024-03-25T00:28:59;3.50;;;3.30;;
84011;SDS011;74081;52.490;13.428;2024-03-25T00:31:25;4.17;;;3.93;;
84011;SDS011;74081;52.490;13.428;2024-03-25T00:33:51;3.77;;;3.47;;
84011;SDS011;74081;52.490;13.428;2024-03-25T00:36:17;3.87;;;3.67;;
84011;SDS011;74081;52.490;13.428;2024-03-25T00:38:43;3.63;;;3.50;;
84011;SDS011;74081;52.490;13.428;2024-03-25T00:41:09;4.17;;;3.93;;
84011;SDS011;74081;52.490;13.428;2024-03-25T00:43:35;5.23;;;4.40;;
84011;SDS011;74081;52.490;13.428;2024-03-25T00:46:00;3.70;;;3.17;;
84011;SDS011;74081;52.490;13.428;2024-03-25T00:48:26;4.50;;;3.80;;
84011;SDS011;74081;52.490;13.428;2024-03-25T00:50:52;4.07;;;3.87;;
84011;SDS011;74081;52.490;13.428;2024-03-25T00:53:18;5.50;;;4.13;;
84011;SDS011;74081;52.490;13.428;2024-03-25T00:55:44;4.60;;;3.67;;
84011;SDS011;74081;52.490;13.428;2024-03-25T00:58:10;3.80;;;3.60;;
84011;SDS011;74081;52.490;13.428;2024-03-25T01:00:36;5.17;;;4.13;;
84011;SDS011;74081;52.490;13.428;2024-03-25T01:03:02;5.27;;;4.50;;
84011;SDS011;74081;52.490;13.428;2024-03-25T01:05:28;5.80;;;5.47;;
84011;SDS011;74081;52.490;13.428;2024-03-25T01:07:53;4.67;;;4.37;;
84011;SDS011;74081;52.490;13.428;2024-03-25T01:10:19;5.17;;;4.87;;
84011;SDS011;74081;52.490;13.428;2024-03-25T01:12:46;5.17;;;4.83;;
84011;SDS011;74081;52.490;13.428;2024-03-25T01:15:11;5.53;;;4.80;;
84011;SDS011;74081;52.490;13.428;2024-03-25T01:17:37;5.87;;;5.57;;
84011;SDS011;74081;52.490;13.428;2024-03-25T01:20:03;5.70;;;5.30;;
84011;SDS011;74081;52.490;13.428;2024-03-25T01:22:31;6.03;;;5.70;;
84011;SDS011;74081;52.490;13.428;2024-03-25T01:24:57;6.10;;;5.40;;
84011;SDS011;74081;52.490;13.428;2024-03-25T01:27:23;6.03;;;5.13;;
84011;SDS011;74081;52.490;13.428;2024-03-25T01:29:49;8.60;;;4.97;;
84011;SDS011;74081;52.490;13.428;2024-03-25T01:32:14;5.73;;;5.20;;
84011;SDS011;74081;52.490;13.428;2024-03-25T01:34:40;6.00;;;5.57;;
84011;SDS011;74081;52.490;13.428;2024-03-25T01:37:06;5.67;;;5.03;;
84011;SDS011;74081;52.490;13.428;2024-03-25T01:39:32;7.73;;;5.27;;
84011;SDS011;74081;52.490;13.428;2024-03-25T01:41:58;5.50;;;4.70;;
84011;SDS011;74081;52.490;13.428;2024-03-25T01:44:24;6.47;;;5.70;;
84011;SDS011;74081;52.490;13.428;2024-03-25T01:46:50;5.10;;;4.70;;
84011;SDS011;74081;52.490;13.428;2024-03-25T01:49:17;4.87;;;4.47;;
84011;SDS011;74081;52.490;13.428;2024-03-25T01:51:45;6.00;;;4.83;;
84011;SDS011;74081;52.490;13.428;2024-03-25T01:54:11;4.70;;;3.87;;
84011;SDS011;74081;52.490;13.428;2024-03-25T01:56:39;4.37;;;3.27;;
84011;SDS011;74081;52.490;13.428;2024-03-25T01:59:07;3.80;;;2.40;;
84011;SDS011;74081;52.490;13.428;2024-03-25T02:01:33;3.00;;;2.60;;
84011;SDS011;74081;52.490;13.428;2024-03-25T02:03:59;2.70;;;1.90;;
84011;SDS011;74081;52.490;13.428;2024-03-25T02:06:26;1.87;;;1.77;;
84011;SDS011;74081;52.490;13.428;2024-03-25T02:08:54;2.10;;;1.67;;
84011;SDS011;74081;52.490;13.428;2024-03-25T02:11:21;2.47;;;2.27;;
84011;SDS011;74081;52.490;13.428;2024-03-25T02:13:49;1.70;;;1.70;;
84011;SDS011;74081;52.490;13.428;2024-03-25T02:16:16;1.77;;;1.70;;
84011;SDS011;74081;52.490;13.428;2024-03-25T02:18:42;1.80;;;1.67;;
84011;SDS011;74081;52.490;13.428;2024-03-25T02:21:08;1.70;;;1.60;;
84011;SDS011;74081;52.490;13.428;2024-03-25T02:23:34;1.67;;;1.60;;
84011;SDS011;74081;52.490;13.428;2024-03-25T02:26:00;2.80;;;1.93;;
84011;SDS011;74081;52.490;13.428;2024-03-25T02:28:26;2.00;;;1.80;;
84011;SDS011;74081;52.490;13.428;2024-03-25T02:30:52;3.03;;;2.30;;
84011;SDS011;74081;52.490;13.428;2024-03-25T02:33:18;3.50;;;2.10;;
84011;SDS011;74081;52.490;13.428;2024-03-25T02:35:44;3.20;;;1.83;;
84011;SDS011;74081;52.490;13.428;2024-03-25T02:38:10;2.43;;;2.00;;
84011;SDS011;74081;52.490;13.428;2024-03-25T02:40:36;2.27;;;2.17;;
84011;SDS011;74081;52.490;13.428;2024-03-25T02:43:03;6.10;;;2.43;;
84011;SDS011;74081;52.490;13.428;2024-03-25T02:45:29;2.70;;;2.17;;
84011;SDS011;74081;52.490;13.428;2024-03-25T02:47:55;2.93;;;2.70;;
84011;SDS011;74081;52.490;13.428;2024-03-25T02:50:21;3.60;;;3.10;;
84011;SDS011;74081;52.490;13.428;2024-03-25T02:52:46;3.80;;;3.30;;
84011;SDS011;74081;52.490;13.428;2024-03-25T02:55:12;4.80;;;2.90;;
84011;SDS011;74081;52.490;13.428;2024-03-25T02:57:38;4.13;;;3.43;;
84011;SDS011;74081;52.490;13.428;2024-03-25T03:00:04;3.50;;;3.30;;
84011;SDS011;74081;52.490;13.428;2024-03-25T03:02:31;2.63;;;2.53;;
84011;SDS011;74081;52.490;13.428;2024-03-25T03:04:56;2.00;;;1.83;;
84011;SDS011;74081;52.490;13.428;2024-03-25T03:07:23;3.00;;;2.20;;
84011;SDS011;74081;52.490;13.428;2024-03-25T03:09:49;3.43;;;2.27;;
84011;SDS011;74081;52.490;13.428;2024-03-25T03:12:14;2.33;;;2.13;;
84011;SDS011;74081;52.490;13.428;2024-03-25T03:14:41;2.47;;;2.10;;
84011;SDS011;74081;52.490;13.428;2024-03-25T03:17:06;2.97;;;2.80;;
84011;SDS011;74081;52.490;13.428;2024-03-25T03:19:32;4.27;;;2.90;;
84011;SDS011;74081;52.490;13.428;2024-03-25T03:21:58;4.70;;;2.83;;
84011;SDS011;74081;52.490;13.428;2024-03-25T03:24:24;4.30;;;3.20;;
84011;SDS011;74081;52.490;13.428;2024-03-25T03:26:50;3.90;;;2.83;;
84011;SDS011;74081;52.490;13.428;2024-03-25T03:29:16;5.00;;;2.60;;
84011;SDS011;74081;52.490;13.428;2024-03-25T03:31:43;7.83;;;2.93;;
84011;SDS011;74081;52.490;13.428;2024-03-25T03:34:10;4.03;;;3.00;;
84011;SDS011;74081;52.490;13.428;2024-03-25T03:36:36;4.20;;;2.80;;
84011;SDS011;74081;52.490;13.428;2024-03-25T03:39:01;5.07;;;3.17;;
84011;SDS011;74081;52.490;13.428;2024-03-25T03:41:29;4.67;;;2.80;;
84011;SDS011;74081;52.490;13.428;2024-03-25T03:43:55;4.83;;;2.60;;
84011;SDS011;74081;52.490;13.428;2024-03-25T03:46:20;2.43;;;2.30;;
84011;SDS011;74081;52.490;13.428;2024-03-25T03:48:47;4.50;;;3.30;;
84011;SDS011;74081;52.490;13.428;2024-03-25T03:51:12;3.30;;;2.40;;
84011;SDS011;74081;52.490;13.428;2024-03-25T03:53:38;3.33;;;2.50;;
84011;SDS011;74081;52.490;13.428;2024-03-25T03:56:05;6.33;;;3.50;;
84011;SDS011;74081;52.490;13.428;2024-03-25T03:58:31;3.43;;;3.03;;
84011;SDS011;74081;52.490;13.428;2024-03-25T04:00:57;3.30;;;3.20;;
84011;SDS011;74081;52.490;13.428;2024-03-25T04:03:24;3.43;;;2.50;;
84011;SDS011;74081;52.490;13.428;2024-03-25T04:05:49;2.93;;;2.70;;
84011;SDS011;74081;52.490;13.428;2024-03-25T04:08:16;2.53;;;2.33;;
84011;SDS011;74081;52.490;13.428;2024-03-25T04:10:43;3.90;;;2.87;;
84011;SDS011;74081;52.490;13.428;2024-03-25T04:13:09;2.60;;;2.20;;
84011;SDS011;74081;52.490;13.428;2024-03-25T04:15:36;2.53;;;2.00;;
84011;SDS011;74081;52.490;13.428;2024-03-25T04:18:03;3.00;;;2.13;;
84011;SDS011;74081;52.490;13.428;2024-03-25T04:20:35;2.10;;;1.87;;
84011;SDS011;74081;52.490;13.428;2024-03-25T04:23:02;2.63;;;2.33;;
84011;SDS011;74081;52.490;13.428;2024-03-25T04:25:29;2.10;;;1.63;;
84011;SDS011;74081;52.490;13.428;2024-03-25T04:27:55;2.37;;;2.17;;
84011;SDS011;74081;52.490;13.428;2024-03-25T04:30:21;3.50;;;2.30;;
84011;SDS011;74081;52.490;13.428;2024-03-25T04:32:47;2.73;;;2.60;;
84011;SDS011;74081;52.490;13.428;2024-03-25T04:35:13;1.93;;;1.83;;
84011;SDS011;74081;52.490;13.428;2024-03-25T04:37:39;3.80;;;2.47;;
84011;SDS011;74081;52.490;13.428;2024-03-25T04:40:07;2.57;;;2.37;;
84011;SDS011;74081;52.490;13.428;2024-03-25T04:42:33;2.73;;;2.07;;
84011;SDS011;74081;52.490;13.428;2024-03-25T04:44:59;4.23;;;3.10;;
84011;SDS011;74081;52.490;13.428;2024-03-25T04:47:25;3.23;;;2.83;;
84011;SDS011;74081;52.490;13.428;2024-03-25T04:49:51;3.00;;;2.80;;
84011;SDS011;74081;52.490;13.428;2024-03-25T04:52:17;6.03;;;3.47;;
84011;SDS011;74081;52.490;13.428;2024-03-25T04:54:43;4.07;;;3.00;;
84011;SDS011;74081;52.490;13.428;2024-03-25T04:57:10;3.47;;;3.27;;
84011;SDS011;74081;52.490;13.428;2024-03-25T04:59:36;4.93;;;3.10;;
84011;SDS011;74081;52.490;13.428;2024-03-25T05:02:02;4.33;;;4.10;;
84011;SDS011;74081;52.490;13.428;2024-03-25T05:04:28;5.50;;;4.50;;
84011;SDS011;74081;52.490;13.428;2024-03-25T05:06:54;3.90;;;3.70;;
84011;SDS011;74081;52.490;13.428;2024-03-25T05:09:20;5.00;;;4.57;;
84011;SDS011;74081;52.490;13.428;2024-03-25T05:11:46;5.10;;;4.50;;
84011;SDS011;74081;52.490;13.428;2024-03-25T05:14:12;5.80;;;5.50;;
84011;SDS011;74081;52.490;13.428;2024-03-25T05:16:38;5.37;;;3.60;;
84011;SDS011;74081;52.490;13.428;2024-03-25T05:19:04;4.83;;;3.63;;
84011;SDS011;74081;52.490;13.428;2024-03-25T05:21:30;3.87;;;3.20;;
84011;SDS011;74081;52.490;13.428;2024-03-25T05:23:56;4.87;;;3.30;;
84011;SDS011;74081;52.490;13.428;2024-03-25T05:26:23;3.47;;;3.00;;
84011;SDS011;74081;52.490;13.428;2024-03-25T05:28:52;5.40;;;3.13;;
84011;SDS011;74081;52.490;13.428;2024-03-25T05:31:21;5.53;;;3.40;;
84011;SDS011;74081;52.490;13.428;2024-03-25T05:33:48;6.80;;;3.30;;
84011;SDS011;74081;52.490;13.428;2024-03-25T05:36:14;3.30;;;3.17;;
84011;SDS011;74081;52.490;13.428;2024-03-25T05:38:40;4.87;;;3.10;;
84011;SDS011;74081;52.490;13.428;2024-03-25T05:41:08;3.00;;;2.80;;
84011;SDS011;74081;52.490;13.428;2024-03-25T05:43:34;3.87;;;3.20;;
84011;SDS011;74081;52.490;13.428;2024-03-25T05:46:01;5.00;;;3.20;;
84011;SDS011;74081;52.490;13.428;2024-03-25T05:48:27;3.70;;;3.37;;
84011;SDS011;74081;52.490;13.428;2024-03-25T05:51:00;4.87;;;3.10;;
84011;SDS011;74081;52.490;13.428;2024-03-25T05:53:40;4.43;;;3.70;;
84011;SDS011;74081;52.490;13.428;2024-03-25T05:56:06;4.73;;;4.30;;
84011;SDS011;74081;52.490;13.428;2024-03-25T05:58:32;5.73;;;4.80;;
84011;SDS011;74081;52.490;13.428;2024-03-25T06:00:58;3.73;;;3.33;;
84011;SDS011;74081;52.490;13.428;2024-03-25T06:03:26;4.50;;;3.47;;
84011;SDS011;74081;52.490;13.428;2024-03-25T06:05:52;8.53;;;4.03;;
84011;SDS011;74081;52.490;13.428;2024-03-25T06:08:18;5.00;;;3.73;;
84011;SDS011;74081;52.490;13.428;2024-03-25T06:10:53;4.33;;;4.10;;
84011;SDS011;74081;52.490;13.428;2024-03-25T06:13:19;7.53;;;4.30;;
84011;SDS011;74081;52.490;13.428;2024-03-25T06:15:46;6.57;;;3.80;;
84011;SDS011;74081;52.490;13.428;2024-03-25T06:18:12;3.60;;;3.30;;
84011;SDS011;74081;52.490;13.428;2024-03-25T06:20:38;7.23;;;4.10;;
84011;SDS011;74081;52.490;13.428;2024-03-25T06:23:04;6.30;;;4.43;;
84011;SDS011;74081;52.490;13.428;2024-03-25T06:25:30;4.67;;;3.77;;
84011;SDS011;74081;52.490;13.428;2024-03-25T06:27:56;9.67;;;4.77;;
84011;SDS011;74081;52.490;13.428;2024-03-25T06:30:22;4.80;;;3.90;;
84011;SDS011;74081;52.490;13.428;2024-03-25T06:33:07;9.10;;;4.50;;
84011;SDS011;74081;52.490;13.428;2024-03-25T06:35:51;7.27;;;4.83;;
84011;SDS011;74081;52.490;13.428;2024-03-25T06:38:20;8.03;;;4.33;;
84011;SDS011;74081;52.490;13.428;2024-03-25T06:40:46;7.13;;;4.77;;
84011;SDS011;74081;52.490;13.428;2024-03-25T06:43:12;5.63;;;3.43;;
84011;SDS011;74081;52.490;13.428;2024-03-25T06:45:39;6.07;;;4.30;;
84011;SDS011;74081;52.490;13.428;2024-03-25T06:48:05;4.67;;;3.17;;
84011;SDS011;74081;52.490;13.428;2024-03-25T06:50:31;6.30;;;4.97;;
84011;SDS011;74081;52.490;13.428;2024-03-25T06:52:57;6.33;;;4.03;;
84011;SDS011;74081;52.490;13.428;2024-03-25T06:55:23;3.73;;;3.57;;
84011;SDS011;74081;52.490;13.428;2024-03-25T06:57:52;8.27;;;4.90;;
84011;SDS011;74081;52.490;13.428;2024-03-25T07:00:19;6.27;;;4.70;;
84011;SDS011;74081;52.490;13.428;2024-03-25T07:02:47;4.03;;;3.63;;
84011;SDS011;74081;52.490;13.428;2024-03-25T07:05:14;7.20;;;5.27;;
84011;SDS011;74081;52.490;13.428;2024-03-25T07:07:40;6.83;;;4.30;;
84011;SDS011;74081;52.490;13.428;2024-03-25T07:10:07;4.03;;;3.60;;
84011;SDS011;74081;52.490;13.428;2024-03-25T07:12:32;4.60;;;3.60;;
84011;SDS011;74081;52.490;13.428;2024-03-25T07:14:59;4.83;;;3.50;;
84011;SDS011;74081;52.490;13.428;2024-03-25T07:17:26;4.50;;;4.13;;
84011;SDS011;74081;52.490;13.428;2024-03-25T07:19:52;7.07;;;4.73;;
84011;SDS011;74081;52.490;13.428;2024-03-25T07:22:17;11.27;;;5.70;;
84011;SDS011;74081;52.490;13.428;2024-03-25T07:24:43;4.77;;;3.80;;
84011;SDS011;74081;52.490;13.428;2024-03-25T07:27:10;5.73;;;4.10;;
84011;SDS011;74081;52.490;13.428;2024-03-25T07:29:36;7.00;;;4.53;;
84011;SDS011;74081;52.490;13.428;2024-03-25T07:32:02;8.83;;;4.40;;
84011;SDS011;74081;52.490;13.428;2024-03-25T07:34:28;5.50;;;3.03;;
84011;SDS011;74081;52.490;13.428;2024-03-25T07:36:54;4.73;;;3.90;;
84011;SDS011;74081;52.490;13.428;2024-03-25T07:39:20;7.10;;;5.20;;
84011;SDS011;74081;52.490;13.428;2024-03-25T07:41:49;6.03;;;4.27;;
84011;SDS011;74081;52.490;13.428;2024-03-25T07:44:15;5.80;;;4.03;;
84011;SDS011;74081;52.490;13.428;2024-03-25T07:46:41;5.20;;;3.70;;
84011;SDS011;74081;52.490;13.428;2024-03-25T07:49:07;3.90;;;3.70;;
84011;SDS011;74081;52.490;13.428;2024-03-25T07:51:33;4.37;;;3.40;;
84011;SDS011;74081;52.490;13.428;2024-03-25T07:54:01;4.47;;;3.97;;
84011;SDS011;74081;52.490;13.428;2024-03-25T07:56:28;3.80;;;3.53;;
84011;SDS011;74081;52.490;13.428;2024-03-25T07:58:56;5.57;;;3.60;;
84011;SDS011;74081;52.490;13.428;2024-03-25T08:01:23;4.83;;;3.80;;
84011;SDS011;74081;52.490;13.428;2024-03-25T08:03:49;5.83;;;4.07;;
84011;SDS011;74081;52.490;13.428;2024-03-25T08:06:15;4.27;;;3.50;;
84011;SDS011;74081;52.490;13.428;2024-03-25T08:08:41;3.70;;;3.23;;
84011;SDS011;74081;52.490;13.428;2024-03-25T08:11:07;6.70;;;3.40;;
84011;SDS011;74081;52.490;13.428;2024-03-25T08:13:33;4.60;;;3.93;;
84011;SDS011;74081;52.490;13.428;2024-03-25T08:15:59;5.20;;;4.20;;
84011;SDS011;74081;52.490;13.428;2024-03-25T08:18:25;6.80;;;3.90;;
84011;SDS011;74081;52.490;13.428;2024-03-25T08:20:51;5.10;;;3.97;;
84011;SDS011;74081;52.490;13.428;2024-03-25T08:23:17;4.67;;;4.20;;
84011;SDS011;74081;52.490;13.428;2024-03-25T08:25:42;5.97;;;4.97;;
84011;SDS011;74081;52.490;13.428;2024-03-25T08:28:09;6.63;;;5.50;;
84011;SDS011;74081;52.490;13.428;2024-03-25T08:30:34;9.13;;;5.10;;
84011;SDS011;74081;52.490;13.428;2024-03-25T08:33:01;6.43;;;5.00;;
84011;SDS011;74081;52.490;13.428;2024-03-25T08:35:28;5.60;;;4.43;;
84011;SDS011;74081;52.490;13.428;2024-03-25T08:37:53;6.23;;;5.10;;
84011;SDS011;74081;52.490;13.428;2024-03-25T08:40:19;6.47;;;6.00;;
84011;SDS011;74081;52.490;13.428;2024-03-25T08:42:45;13.67;;;7.20;;
84011;SDS011;74081;52.490;13.428;2024-03-25T08:45:11;7.50;;;5.43;;
84011;SDS011;74081;52.490;13.428;2024-03-25T08:47:37;7.10;;;5.60;;
84011;SDS011;74081;52.490;13.428;2024-03-25T08:50:04;6.20;;;5.67;;
84011;SDS011;74081;52.490;13.428;2024-03-25T08:52:30;9.90;;;5.30;;
84011;SDS011;74081;52.490;13.428;2024-03-25T08:54:56;5.10;;;4.80;;
84011;SDS011;74081;52.490;13.428;2024-03-25T08:57:22;6.67;;;5.33;;
84011;SDS011;74081;52.490;13.428;2024-03-25T08:59:48;6.77;;;4.73;;
84011;SDS011;74081;52.490;13.428;2024-03-25T09:02:14;10.63;;;6.40;;
84011;SDS011;74081;52.490;13.428;2024-03-25T09:04:40;7.97;;;5.50;;
84011;SDS011;74081;52.490;13.428;2024-03-25T09:07:06;8.10;;;5.90;;
84011;SDS011;74081;52.490;13.428;2024-03-25T09:09:31;6.83;;;5.20;;
84011;SDS011;74081;52.490;13.428;2024-03-25T09:12:16;9.33;;;6.60;;
84011;SDS011;74081;52.490;13.428;2024-03-25T09:14:45;7.13;;;5.23;;
84011;SDS011;74081;52.490;13.428;2024-03-25T09:17:11;8.93;;;5.70;;
84011;SDS011;74081;52.490;13.428;2024-03-25T09:19:38;6.23;;;5.07;;
84011;SDS011;74081;52.490;13.428;2024-03-25T09:22:04;5.30;;;4.70;;
84011;SDS011;74081;52.490;13.428;2024-03-25T09:24:29;5.53;;;4.70;;
84011;SDS011;74081;52.490;13.428;2024-03-25T09:26:56;8.17;;;6.67;;
84011;SDS011;74081;52.490;13.428;2024-03-25T09:29:21;5.37;;;5.07;;
84011;SDS011;74081;52.490;13.428;2024-03-25T09:31:47;7.83;;;5.17;;
84011;SDS011;74081;52.490;13.428;2024-03-25T09:34:13;10.20;;;5.50;;
84011;SDS011;74081;52.490;13.428;2024-03-25T09:36:39;5.47;;;4.00;;
84011;SDS011;74081;52.490;13.428;2024-03-25T09:39:05;5.27;;;4.27;;
84011;SDS011;74081;52.490;13.428;2024-03-25T09:41:32;6.30;;;4.50;;
84011;SDS011;74081;52.490;13.428;2024-03-25T09:44:01;5.30;;;3.80;;
84011;SDS011;74081;52.490;13.428;2024-03-25T09:46:31;5.37;;;3.40;;
84011;SDS011;74081;52.490;13.428;2024-03-25T09:48:59;9.70;;;3.90;;
84011;SDS011;74081;52.490;13.428;2024-03-25T09:51:25;4.97;;;4.70;;
84011;SDS011;74081;52.490;13.428;2024-03-25T09:53:51;5.23;;;3.97;;
84011;SDS011;74081;52.490;13.428;2024-03-25T09:56:17;4.93;;;3.80;;
84011;SDS011;74081;52.490;13.428;2024-03-25T09:58:43;4.40;;;3.73;;
84011;SDS011;74081;52.490;13.428;2024-03-25T10:01:09;4.30;;;4.03;;
84011;SDS011;74081;52.490;13.428;2024-03-25T10:03:36;5.00;;;3.57;;
84011;SDS011;74081;52.490;13.428;2024-03-25T10:06:02;8.27;;;4.60;;
84011;SDS011;74081;52.490;13.428;2024-03-25T10:08:28;4.50;;;4.00;;
84011;SDS011;74081;52.490;13.428;2024-03-25T10:10:55;6.33;;;3.50;;
84011;SDS011;74081;52.490;13.428;2024-03-25T10:13:22;7.33;;;4.10;;
84011;SDS011;74081;52.490;13.428;2024-03-25T10:15:48;5.10;;;3.80;;
84011;SDS011;74081;52.490;13.428;2024-03-25T10:18:14;4.87;;;3.73;;
84011;SDS011;74081;52.490;13.428;2024-03-25T10:20:47;6.77;;;4.07;;
84011;SDS011;74081;52.490;13.428;2024-03-25T10:23:13;7.90;;;4.23;;
84011;SDS011;74081;52.490;13.428;2024-03-25T10:25:40;6.60;;;4.37;;
84011;SDS011;74081;52.490;13.428;2024-03-25T10:28:06;6.90;;;4.90;;
84011;SDS011;74081;52.490;13.428;2024-03-25T10:30:33;4.20;;;3.60;;
84011;SDS011;74081;52.490;13.428;2024-03-25T10:33:01;6.13;;;3.80;;
84011;SDS011;74081;52.490;13.428;2024-03-25T10:35:28;5.00;;;3.83;;
84011;SDS011;74081;52.490;13.428;2024-03-25T10:38:03;7.30;;;3.67;;
84011;SDS011;74081;52.490;13.428;2024-03-25T10:40:31;4.40;;;3.33;;
84011;SDS011;74081;52.490;13.428;2024-03-25T10:43:02;7.70;;;3.77;;
84011;SDS011;74081;52.490;13.428;2024-03-25T10:45:33;6.80;;;3.20;;
84011;SDS011;74081;52.490;13.428;2024-03-25T10:48:21;5.20;;;3.00;;
84011;SDS011;74081;52.490;13.428;2024-03-25T10:50:56;5.03;;;2.90;;
84011;SDS011;74081;52.490;13.428;2024-03-25T10:53:23;9.17;;;3.87;;
84011;SDS011;74081;52.490;13.428;2024-03-25T10:55:56;3.90;;;2.83;;
84011;SDS011;74081;52.490;13.428;2024-03-25T10:58:22;8.87;;;5.50;;
84011;SDS011;74081;52.490;13.428;2024-03-25T11:00:49;5.13;;;3.37;;
84011;SDS011;74081;52.490;13.428;2024-03-25T11:03:17;6.47;;;4.20;;
84011;SDS011;74081;52.490;13.428;2024-03-25T11:05:43;3.20;;;3.00;;
84011;SDS011;74081;52.490;13.428;2024-03-25T11:08:13;4.70;;;3.07;;
84011;SDS011;74081;52.490;13.428;2024-03-25T11:10:44;5.07;;;3.30;;
84011;SDS011;74081;52.490;13.428;2024-03-25T11:13:14;3.37;;;3.20;;
84011;SDS011;74081;52.490;13.428;2024-03-25T11:15:42;4.40;;;3.27;;
84011;SDS011;74081;52.490;13.428;2024-03-25T11:18:13;3.80;;;2.83;;
84011;SDS011;74081;52.490;13.428;2024-03-25T11:20:39;4.03;;;2.70;;
84011;SDS011;74081;52.490;13.428;2024-03-25T11:23:10;5.50;;;2.77;;
84011;SDS011;74081;52.490;13.428;2024-03-25T11:25:37;5.63;;;3.07;;
84011;SDS011;74081;52.490;13.428;2024-03-25T11:28:03;4.57;;;2.67;;
84011;SDS011;74081;52.490;13.428;2024-03-25T11:30:30;3.57;;;2.70;;
84011;SDS011;74081;52.490;13.428;2024-03-25T11:32:57;4.30;;;2.47;;
84011;SDS011;74081;52.490;13.428;2024-03-25T11:35:26;5.03;;;2.40;;
84011;SDS011;74081;52.490;13.428;2024-03-25T11:37:52;2.60;;;2.40;;
84011;SDS011;74081;52.490;13.428;2024-03-25T11:40:18;3.13;;;2.40;;
84011;SDS011;74081;52.490;13.428;2024-03-25T11:42:44;3.50;;;2.77;;
84011;SDS011;74081;52.490;13.428;2024-03-25T11:47:44;3.67;;;2.70;;
84011;SDS011;74081;52.490;13.428;2024-03-25T11:50:16;3.87;;;2.60;;
84011;SDS011;74081;52.490;13.428;2024-03-25T11:52:43;4.10;;;2.57;;
84011;SDS011;74081;52.490;13.428;2024-03-25T11:55:10;3.47;;;2.83;;
84011;SDS011;74081;52.490;13.428;2024-03-25T11:57:40;4.73;;;2.50;;
84011;SDS011;74081;52.490;13.428;2024-03-25T12:00:07;4.47;;;2.40;;
84011;SDS011;74081;52.490;13.428;2024-03-25T12:02:42;6.60;;;2.47;;
84011;SDS011;74081;52.490;13.428;2024-03-25T12:05:09;2.70;;;2.30;;
84011;SDS011;74081;52.490;13.428;2024-03-25T12:07:36;3.13;;;2.57;;
84011;SDS011;74081;52.490;13.428;2024-03-25T12:10:02;2.70;;;2.17;;
84011;SDS011;74081;52.490;13.428;2024-03-25T12:12:47;4.07;;;2.00;;
84011;SDS011;74081;52.490;13.428;2024-03-25T12:15:15;2.60;;;1.77;;
84011;SDS011;74081;52.490;13.428;2024-03-25T12:17:42;2.80;;;2.27;;
84011;SDS011;74081;52.490;13.428;2024-03-25T12:20:09;3.73;;;1.80;;
84011;SDS011;74081;52.490;13.428;2024-03-25T12:22:36;2.20;;;1.87;;
84011;SDS011;74081;52.490;13.428;2024-03-25T12:25:03;4.80;;;2.40;;
84011;SDS011;74081;52.490;13.428;2024-03-25T12:27:31;3.40;;;2.50;;
84011;SDS011;74081;52.490;13.428;2024-03-25T12:29:59;4.17;;;2.97;;
84011;SDS011;74081;52.490;13.428;2024-03-25T12:32:36;2.70;;;2.50;;
84011;SDS011;74081;52.490;13.428;2024-03-25T12:35:08;2.47;;;2.20;;
84011;SDS011;74081;52.490;13.428;2024-03-25T12:37:36;2.77;;;2.13;;
84011;SDS011;74081;52.490;13.428;2024-03-25T12:40:02;3.07;;;2.87;;
84011;SDS011;74081;52.490;13.428;2024-03-25T12:42:32;3.33;;;2.37;;
84011;SDS011;74081;52.490;13.428;2024-03-25T12:44:58;2.97;;;2.07;;
84011;SDS011;74081;52.490;13.428;2024-03-25T12:47:24;2.53;;;2.33;;
84011;SDS011;74081;52.490;13.428;2024-03-25T12:49:50;8.70;;;4.77;;
84011;SDS011;74081;52.490;13.428;2024-03-25T12:52:16;2.57;;;2.37;;
84011;SDS011;74081;52.490;13.428;2024-03-25T12:54:42;3.97;;;3.17;;
84011;SDS011;74081;52.490;13.428;2024-03-25T12:57:08;4.20;;;2.20;;
84011;SDS011;74081;52.490;13.428;2024-03-25T12:59:37;2.53;;;2.40;;
84011;SDS011;74081;52.490;13.428;2024-03-25T13:02:03;2.27;;;2.10;;
84011;SDS011;74081;52.490;13.428;2024-03-25T13:04:29;2.43;;;2.07;;
84011;SDS011;74081;52.490;13.428;2024-03-25T13:06:55;4.20;;;3.00;;
84011;SDS011;74081;52.490;13.428;2024-03-25T13:09:21;3.33;;;2.23;;
84011;SDS011;74081;52.490;13.428;2024-03-25T13:11:47;4.33;;;4.03;;
84011;SDS011;74081;52.490;13.428;2024-03-25T13:14:13;5.43;;;3.50;;
84011;SDS011;74081;52.490;13.428;2024-03-25T13:16:41;2.37;;;2.17;;
84011;SDS011;74081;52.490;13.428;2024-03-25T13:19:07;1.60;;;1.60;;
84011;SDS011;74081;52.490;13.428;2024-03-25T13:21:33;2.50;;;2.30;;
84011;SDS011;74081;52.490;13.428;2024-03-25T13:23:59;3.47;;;2.17;;
84011;SDS011;74081;52.490;13.428;2024-03-25T13:26:26;2.60;;;2.33;;
84011;SDS011;74081;52.490;13.428;2024-03-25T13:28:53;4.50;;;3.67;;
84011;SDS011;74081;52.490;13.428;2024-03-25T13:31:19;3.37;;;2.80;;
84011;SDS011;74081;52.490;13.428;2024-03-25T13:33:45;3.63;;;2.50;;
84011;SDS011;74081;52.490;13.428;2024-03-25T13:36:11;5.23;;;2.70;;
84011;SDS011;74081;52.490;13.428;2024-03-25T13:38:37;4.07;;;2.90;;
84011;SDS011;74081;52.490;13.428;2024-03-25T13:41:03;8.63;;;4.37;;
84011;SDS011;74081;52.490;13.428;2024-03-25T13:43:31;6.50;;;4.20;;
84011;SDS011;74081;52.490;13.428;2024-03-25T13:45:57;7.80;;;4.30;;
84011;SDS011;74081;52.490;13.428;2024-03-25T13:48:23;8.30;;;4.10;;
84011;SDS011;74081;52.490;13.428;2024-03-25T13:50:49;8.67;;;4.10;;
84011;SDS011;74081;52.490;13.428;2024-03-25T13:53:18;9.60;;;4.97;;
84011;SDS011;74081;52.490;13.428;2024-03-25T13:55:45;13.20;;;4.83;;
84011;SDS011;74081;52.490;13.428;2024-03-25T13:58:11;5.87;;;2.90;;
84011;SDS011;74081;52.490;13.428;2024-03-25T14:00:37;4.33;;;2.40;;
84011;SDS011;74081;52.490;13.428;2024-03-25T14:03:03;3.67;;;2.67;;
84011;SDS011;74081;52.490;13.428;2024-03-25T14:05:29;2.33;;;1.90;;
84011;SDS011;74081;52.490;13.428;2024-03-25T14:07:55;3.50;;;2.13;;
84011;SDS011;74081;52.490;13.428;2024-03-25T14:10:21;11.23;;;4.20;;
84011;SDS011;74081;52.490;13.428;2024-03-25T14:12:48;4.10;;;2.80;;
84011;SDS011;74081;52.490;13.428;2024-03-25T14:15:13;3.80;;;2.37;;
84011;SDS011;74081;52.490;13.428;2024-03-25T14:17:39;6.50;;;3.90;;
84011;SDS011;74081;52.490;13.428;2024-03-25T14:20:06;3.93;;;2.70;;
84011;SDS011;74081;52.490;13.428;2024-03-25T14:22:34;3.67;;;2.70;;
84011;SDS011;74081;52.490;13.428;2024-03-25T14:25:00;4.00;;;2.13;;
84011;SDS011;74081;52.490;13.428;2024-03-25T14:27:26;5.07;;;2.43;;
84011;SDS011;74081;52.490;13.428;2024-03-25T14:29:52;3.70;;;2.20;;
